sensor_id;sensor_type;location;lat;lon;timestamp;temperature;humidity
9776;DHT22;4927;52.472;13.108;2022-09-20T00:03:16;8.80;99.90
9776;DHT22;4927;52.472;13.108;2022-09-20T00:08:22;8.80;99.90
9776;DHT22;4927;52.472;13.108;2022-09-20T00:13:29;8.90;99.90
9776;DHT22;4927;52.472;13.108;2022-09-20T00:18:35;8.90;99.90
9776;DHT22;4927;52.472;13.108;2022-09-20T00:23:41;9.00;99.90
9776;DHT22;4927;52.472;13.108;2022-09-20T00:28:47;8.90;99.90
9776;DHT22;4927;52.472;13.108;2022-09-20T00:33:54;8.80;99.90
9776;DHT22;4927;52.472;13.108;2022-09-20T00:39:08;8.80;99.90
9776;DHT22;4927;52.472;13.108;2022-09-20T00:49:31;8.70;99.90
9776;DHT22;4927;52.472;13.108;2022-09-20T00:54:37;8.70;99.90
9776;DHT22;4927;52.472;13.108;2022-09-20T00:59:44;8.70;99.90
9776;DHT22;4927;52.472;13.108;2022-09-20T01:05:29;8.70;99.90
9776;DHT22;4927;52.472;13.108;2022-09-20T01:10:35;8.60;99.90
9776;DHT22;4927;52.472;13.108;2022-09-20T01:15:42;8.60;99.90
9776;DHT22;4927;52.472;13.108;2022-09-20T01:20:47;8.60;99.90
9776;DHT22;4927;52.472;13.108;2022-09-20T01:31:32;8.50;99.90
9776;DHT22;4927;52.472;13.108;2022-09-20T01:36:48;8.50;99.90
9776;DHT22;4927;52.472;13.108;2022-09-20T01:41:57;8.50;99.90
9776;DHT22;4927;52.472;13.108;2022-09-20T01:47:28;8.50;99.90
9776;DHT22;4927;52.472;13.108;2022-09-20T01:52:55;8.50;99.90
9776;DHT22;4927;52.472;13.108;2022-09-20T01:58:17;8.60;99.90
9776;DHT22;4927;52.472;13.108;2022-09-20T02:03:34;8.60;99.90
9776;DHT22;4927;52.472;13.108;2022-09-20T02:09:01;8.60;99.90
9776;DHT22;4927;52.472;13.108;2022-09-20T02:19:32;8.70;99.90
9776;DHT22;4927;52.472;13.108;2022-09-20T02:30:14;8.80;99.90
9776;DHT22;4927;52.472;13.108;2022-09-20T02:41:03;9.00;99.90
9776;DHT22;4927;52.472;13.108;2022-09-20T02:46:23;9.00;99.90
9776;DHT22;4927;52.472;13.108;2022-09-20T02:51:40;9.10;99.90
9776;DHT22;4927;52.472;13.108;2022-09-20T03:02:22;9.20;99.90
9776;DHT22;4927;52.472;13.108;2022-09-20T03:07:51;9.20;99.90
9776;DHT22;4927;52.472;13.108;2022-09-20T03:12:59;9.20;99.90
9776;DHT22;4927;52.472;13.108;2022-09-20T03:23:43;9.20;99.90
9776;DHT22;4927;52.472;13.108;2022-09-20T03:28:54;9.30;99.90
9776;DHT22;4927;52.472;13.108;2022-09-20T03:56:02;9.30;99.90
9776;DHT22;4927;52.472;13.108;2022-09-20T04:01:31;9.20;99.90
9776;DHT22;4927;52.472;13.108;2022-09-20T04:07:04;9.20;99.90
9776;DHT22;4927;52.472;13.108;2022-09-20T04:12:27;9.20;99.90
9776;DHT22;4927;52.472;13.108;2022-09-20T04:17:44;9.20;99.90
9776;DHT22;4927;52.472;13.108;2022-09-20T04:22:48;9.30;99.90
9776;DHT22;4927;52.472;13.108;2022-09-20T04:27:56;9.20;99.90
9776;DHT22;4927;52.472;13.108;2022-09-20T04:33:07;9.20;99.90
9776;DHT22;4927;52.472;13.108;2022-09-20T04:38:12;9.20;99.90
9776;DHT22;4927;52.472;13.108;2022-09-20T04:43:36;9.20;99.90
9776;DHT22;4927;52.472;13.108;2022-09-20T04:59:47;9.00;99.90
9776;DHT22;4927;52.472;13.108;2022-09-20T05:05:16;8.90;99.90
9776;DHT22;4927;52.472;13.108;2022-09-20T05:15:55;8.90;99.90
9776;DHT22;4927;52.472;13.108;2022-09-20T05:32:24;9.00;99.90
9776;DHT22;4927;52.472;13.108;2022-09-20T05:37:33;9.10;99.90
9776;DHT22;4927;52.472;13.108;2022-09-20T05:42:54;9.20;99.90
9776;DHT22;4927;52.472;13.108;2022-09-20T05:48:01;9.10;99.90
9776;DHT22;4927;52.472;13.108;2022-09-20T05:53:24;9.10;99.90
9776;DHT22;4927;52.472;13.108;2022-09-20T06:03:50;9.20;99.90
9776;DHT22;4927;52.472;13.108;2022-09-20T06:09:19;9.30;99.90
9776;DHT22;4927;52.472;13.108;2022-09-20T06:20:11;9.30;99.90
9776;DHT22;4927;52.472;13.108;2022-09-20T06:25:22;9.40;99.90
9776;DHT22;4927;52.472;13.108;2022-09-20T06:30:28;9.40;99.90
9776;DHT22;4927;52.472;13.108;2022-09-20T06:35:40;9.40;99.90
9776;DHT22;4927;52.472;13.108;2022-09-20T06:40:45;9.50;99.90
9776;DHT22;4927;52.472;13.108;2022-09-20T06:45:57;9.50;99.90
9776;DHT22;4927;52.472;13.108;2022-09-20T06:51:04;9.50;99.90
9776;DHT22;4927;52.472;13.108;2022-09-20T06:56:16;9.40;99.90
9776;DHT22;4927;52.472;13.108;2022-09-20T07:01:21;9.60;99.90
9776;DHT22;4927;52.472;13.108;2022-09-20T07:06:32;9.40;99.90
9776;DHT22;4927;52.472;13.108;2022-09-20T07:11:38;9.70;99.90
9776;DHT22;4927;52.472;13.108;2022-09-20T07:16:45;10.00;99.90
9776;DHT22;4927;52.472;13.108;2022-09-20T07:21:55;10.00;99.90
9776;DHT22;4927;52.472;13.108;2022-09-20T07:27:02;10.00;99.90
9776;DHT22;4927;52.472;13.108;2022-09-20T07:32:08;10.00;99.90
9776;DHT22;4927;52.472;13.108;2022-09-20T07:37:15;10.10;99.90
9776;DHT22;4927;52.472;13.108;2022-09-20T07:42:20;10.30;99.90
9776;DHT22;4927;52.472;13.108;2022-09-20T07:47:25;10.30;99.90
9776;DHT22;4927;52.472;13.108;2022-09-20T07:52:31;10.40;99.90
9776;DHT22;4927;52.472;13.108;2022-09-20T07:57:37;10.60;99.90
9776;DHT22;4927;52.472;13.108;2022-09-20T08:02:43;10.70;99.90
9776;DHT22;4927;52.472;13.108;2022-09-20T08:07:49;10.90;99.90
9776;DHT22;4927;52.472;13.108;2022-09-20T08:12:58;11.00;99.90
9776;DHT22;4927;52.472;13.108;2022-09-20T08:18:02;11.20;99.90
9776;DHT22;4927;52.472;13.108;2022-09-20T08:23:09;11.40;99.90
9776;DHT22;4927;52.472;13.108;2022-09-20T08:28:19;11.70;99.90
9776;DHT22;4927;52.472;13.108;2022-09-20T08:33:25;11.80;99.90
9776;DHT22;4927;52.472;13.108;2022-09-20T08:38:32;11.80;99.90
9776;DHT22;4927;52.472;13.108;2022-09-20T08:43:39;11.90;99.90
9776;DHT22;4927;52.472;13.108;2022-09-20T08:48:44;12.00;99.90
9776;DHT22;4927;52.472;13.108;2022-09-20T08:53:51;12.10;99.90
9776;DHT22;4927;52.472;13.108;2022-09-20T08:58:57;12.20;99.90
9776;DHT22;4927;52.472;13.108;2022-09-20T09:04:10;12.20;99.90
9776;DHT22;4927;52.472;13.108;2022-09-20T09:09:15;12.10;99.90
9776;DHT22;4927;52.472;13.108;2022-09-20T09:14:27;12.10;99.90
9776;DHT22;4927;52.472;13.108;2022-09-20T09:19:44;12.20;99.90
9776;DHT22;4927;52.472;13.108;2022-09-20T09:30:17;12.60;99.90
9776;DHT22;4927;52.472;13.108;2022-09-20T09:35:21;12.60;99.90
9776;DHT22;4927;52.472;13.108;2022-09-20T09:40:22;12.80;99.90
9776;DHT22;4927;52.472;13.108;2022-09-20T09:45:31;13.10;99.90
9776;DHT22;4927;52.472;13.108;2022-09-20T09:50:37;13.20;99.90
9776;DHT22;4927;52.472;13.108;2022-09-20T09:56:07;13.30;99.90
9776;DHT22;4927;52.472;13.108;2022-09-20T10:01:12;13.30;99.90
9776;DHT22;4927;52.472;13.108;2022-09-20T10:06:20;13.20;99.90
9776;DHT22;4927;52.472;13.108;2022-09-20T10:11:36;13.30;99.90
9776;DHT22;4927;52.472;13.108;2022-09-20T10:22:28;13.80;99.90
9776;DHT22;4927;52.472;13.108;2022-09-20T10:27:47;13.80;99.90
9776;DHT22;4927;52.472;13.108;2022-09-20T10:32:57;13.80;99.90
9776;DHT22;4927;52.472;13.108;2022-09-20T10:43:26;14.00;99.90
9776;DHT22;4927;52.472;13.108;2022-09-20T10:48:32;14.20;99.90
9776;DHT22;4927;52.472;13.108;2022-09-20T10:53:59;14.60;99.90
9776;DHT22;4927;52.472;13.108;2022-09-20T11:04:48;14.50;99.90
9776;DHT22;4927;52.472;13.108;2022-09-20T11:09:56;14.70;99.90
9776;DHT22;4927;52.472;13.108;2022-09-20T11:15:04;15.00;99.90
9776;DHT22;4927;52.472;13.108;2022-09-20T11:20:14;15.40;99.90
9776;DHT22;4927;52.472;13.108;2022-09-20T11:25:39;15.80;99.90
9776;DHT22;4927;52.472;13.108;2022-09-20T11:36:07;16.50;99.90
9776;DHT22;4927;52.472;13.108;2022-09-20T11:41:29;16.60;99.90
9776;DHT22;4927;52.472;13.108;2022-09-20T11:46:40;16.50;99.90
9776;DHT22;4927;52.472;13.108;2022-09-20T11:57:11;16.40;99.90
9776;DHT22;4927;52.472;13.108;2022-09-20T12:02:21;16.40;99.90
9776;DHT22;4927;52.472;13.108;2022-09-20T12:07:28;16.40;99.90
9776;DHT22;4927;52.472;13.108;2022-09-20T12:12:38;16.40;99.90
9776;DHT22;4927;52.472;13.108;2022-09-20T12:18:01;16.40;99.90
9776;DHT22;4927;52.472;13.108;2022-09-20T12:28:35;16.20;99.90
9776;DHT22;4927;52.472;13.108;2022-09-20T12:39:03;16.00;99.90
9776;DHT22;4927;52.472;13.108;2022-09-20T12:44:25;16.00;99.90
9776;DHT22;4927;52.472;13.108;2022-09-20T12:49:35;16.00;99.90
9776;DHT22;4927;52.472;13.108;2022-09-20T12:54:51;16.00;99.90
9776;DHT22;4927;52.472;13.108;2022-09-20T12:59:58;15.30;99.90
9776;DHT22;4927;52.472;13.108;2022-09-20T13:05:15;13.60;99.90
9776;DHT22;4927;52.472;13.108;2022-09-20T13:10:17;12.10;99.90
9776;DHT22;4927;52.472;13.108;2022-09-20T13:15:21;11.50;99.90
9776;DHT22;4927;52.472;13.108;2022-09-20T13:20:28;11.60;99.90
9776;DHT22;4927;52.472;13.108;2022-09-20T13:25:34;11.60;99.90
9776;DHT22;4927;52.472;13.108;2022-09-20T13:30:40;11.70;99.90
9776;DHT22;4927;52.472;13.108;2022-09-20T13:35:52;11.90;99.90
9776;DHT22;4927;52.472;13.108;2022-09-20T13:41:03;11.90;99.90
9776;DHT22;4927;52.472;13.108;2022-09-20T13:46:23;11.90;99.90
9776;DHT22;4927;52.472;13.108;2022-09-20T13:51:29;11.80;99.90
9776;DHT22;4927;52.472;13.108;2022-09-20T13:56:35;11.80;99.90
9776;DHT22;4927;52.472;13.108;2022-09-20T14:01:43;11.70;99.90
9776;DHT22;4927;52.472;13.108;2022-09-20T14:06:49;11.60;99.90
9776;DHT22;4927;52.472;13.108;2022-09-20T14:11:55;11.60;99.90
9776;DHT22;4927;52.472;13.108;2022-09-20T14:17:03;11.60;99.90
9776;DHT22;4927;52.472;13.108;2022-09-20T14:22:11;11.50;99.90
9776;DHT22;4927;52.472;13.108;2022-09-20T14:27:17;11.50;99.90
9776;DHT22;4927;52.472;13.108;2022-09-20T14:32:24;11.40;99.90
9776;DHT22;4927;52.472;13.108;2022-09-20T14:43:01;11.50;99.90
9776;DHT22;4927;52.472;13.108;2022-09-20T14:48:29;11.60;99.90
9776;DHT22;4927;52.472;13.108;2022-09-20T14:53:30;11.70;99.90
9776;DHT22;4927;52.472;13.108;2022-09-20T15:03:55;12.00;99.90
9776;DHT22;4927;52.472;13.108;2022-09-20T15:09:01;12.10;99.90
9776;DHT22;4927;52.472;13.108;2022-09-20T15:14:07;12.30;99.90
9776;DHT22;4927;52.472;13.108;2022-09-20T15:19:14;12.40;99.90
9776;DHT22;4927;52.472;13.108;2022-09-20T15:24:20;12.50;99.90
9776;DHT22;4927;52.472;13.108;2022-09-20T15:29:24;12.60;99.90
9776;DHT22;4927;52.472;13.108;2022-09-20T15:34:31;12.70;99.90
9776;DHT22;4927;52.472;13.108;2022-09-20T15:39:37;12.80;99.90
9776;DHT22;4927;52.472;13.108;2022-09-20T15:44:43;12.70;99.90
9776;DHT22;4927;52.472;13.108;2022-09-20T15:49:49;12.70;99.90
9776;DHT22;4927;52.472;13.108;2022-09-20T15:54:56;12.70;99.90
9776;DHT22;4927;52.472;13.108;2022-09-20T16:00:03;12.70;99.90
9776;DHT22;4927;52.472;13.108;2022-09-20T16:05:09;12.60;99.90
9776;DHT22;4927;52.472;13.108;2022-09-20T16:10:16;12.40;99.90
9776;DHT22;4927;52.472;13.108;2022-09-20T16:15:23;12.20;99.90
9776;DHT22;4927;52.472;13.108;2022-09-20T16:20:28;12.20;99.90
9776;DHT22;4927;52.472;13.108;2022-09-20T16:25:34;12.10;99.90
9776;DHT22;4927;52.472;13.108;2022-09-20T16:30:41;12.00;99.90
9776;DHT22;4927;52.472;13.108;2022-09-20T16:35:48;11.80;99.90
9776;DHT22;4927;52.472;13.108;2022-09-20T16:40:55;11.60;99.90
9776;DHT22;4927;52.472;13.108;2022-09-20T16:46:01;11.60;99.90
9776;DHT22;4927;52.472;13.108;2022-09-20T16:51:07;11.50;99.90
9776;DHT22;4927;52.472;13.108;2022-09-20T16:56:16;11.20;99.90
9776;DHT22;4927;52.472;13.108;2022-09-20T17:01:20;11.20;99.90
9776;DHT22;4927;52.472;13.108;2022-09-20T17:06:24;11.10;99.90
9776;DHT22;4927;52.472;13.108;2022-09-20T17:11:33;11.10;99.90
9776;DHT22;4927;52.472;13.108;2022-09-20T17:16:39;11.00;99.90
9776;DHT22;4927;52.472;13.108;2022-09-20T17:21:45;10.80;99.90
9776;DHT22;4927;52.472;13.108;2022-09-20T17:26:50;10.60;99.90
9776;DHT22;4927;52.472;13.108;2022-09-20T17:31:56;10.50;99.90
9776;DHT22;4927;52.472;13.108;2022-09-20T17:37:03;10.50;99.90
9776;DHT22;4927;52.472;13.108;2022-09-20T17:42:09;10.40;99.90
9776;DHT22;4927;52.472;13.108;2022-09-20T17:47:16;10.40;99.90
9776;DHT22;4927;52.472;13.108;2022-09-20T17:52:22;10.40;99.90
9776;DHT22;4927;52.472;13.108;2022-09-20T17:57:29;10.40;99.90
9776;DHT22;4927;52.472;13.108;2022-09-20T18:02:36;10.40;99.90
9776;DHT22;4927;52.472;13.108;2022-09-20T18:07:42;10.30;99.90
9776;DHT22;4927;52.472;13.108;2022-09-20T18:12:48;10.20;99.90
9776;DHT22;4927;52.472;13.108;2022-09-20T18:17:55;10.10;99.90
9776;DHT22;4927;52.472;13.108;2022-09-20T18:23:00;10.10;99.90
9776;DHT22;4927;52.472;13.108;2022-09-20T18:28:06;10.00;99.90
9776;DHT22;4927;52.472;13.108;2022-09-20T18:33:11;9.90;99.90
9776;DHT22;4927;52.472;13.108;2022-09-20T18:38:17;9.80;99.90
9776;DHT22;4927;52.472;13.108;2022-09-20T18:43:22;9.60;99.90
9776;DHT22;4927;52.472;13.108;2022-09-20T18:48:30;9.50;99.90
9776;DHT22;4927;52.472;13.108;2022-09-20T18:53:33;9.40;99.90
9776;DHT22;4927;52.472;13.108;2022-09-20T18:58:39;9.30;99.90
9776;DHT22;4927;52.472;13.108;2022-09-20T19:14:43;9.00;99.90
9776;DHT22;4927;52.472;13.108;2022-09-20T19:19:48;8.90;99.90
9776;DHT22;4927;52.472;13.108;2022-09-20T19:25:16;8.80;99.90
9776;DHT22;4927;52.472;13.108;2022-09-20T19:30:19;8.70;99.90
9776;DHT22;4927;52.472;13.108;2022-09-20T19:35:26;8.70;99.90
9776;DHT22;4927;52.472;13.108;2022-09-20T19:51:29;8.40;99.90
9776;DHT22;4927;52.472;13.108;2022-09-20T19:56:42;8.30;99.90
9776;DHT22;4927;52.472;13.108;2022-09-20T20:01:51;8.30;99.90
9776;DHT22;4927;52.472;13.108;2022-09-20T20:07:02;8.20;99.90
9776;DHT22;4927;52.472;13.108;2022-09-20T20:12:12;8.20;99.90
9776;DHT22;4927;52.472;13.108;2022-09-20T20:17:40;8.10;99.90
9776;DHT22;4927;52.472;13.108;2022-09-20T20:28:02;8.10;99.90
9776;DHT22;4927;52.472;13.108;2022-09-20T20:33:13;8.00;99.90
9776;DHT22;4927;52.472;13.108;2022-09-20T20:38:19;7.90;99.90
9776;DHT22;4927;52.472;13.108;2022-09-20T20:43:24;7.80;99.90
9776;DHT22;4927;52.472;13.108;2022-09-20T20:48:34;7.80;99.90
9776;DHT22;4927;52.472;13.108;2022-09-20T20:53:46;7.70;99.90
9776;DHT22;4927;52.472;13.108;2022-09-20T20:58:51;7.60;99.90
9776;DHT22;4927;52.472;13.108;2022-09-20T21:03:56;7.60;99.90
9776;DHT22;4927;52.472;13.108;2022-09-20T21:09:03;7.40;99.90
9776;DHT22;4927;52.472;13.108;2022-09-20T21:14:10;7.40;99.90
9776;DHT22;4927;52.472;13.108;2022-09-20T21:19:16;7.30;99.90
9776;DHT22;4927;52.472;13.108;2022-09-20T21:24:26;7.30;99.90
9776;DHT22;4927;52.472;13.108;2022-09-20T21:29:33;7.20;99.90
9776;DHT22;4927;52.472;13.108;2022-09-20T21:34:39;7.20;99.90
9776;DHT22;4927;52.472;13.108;2022-09-20T21:39:46;7.20;99.90
9776;DHT22;4927;52.472;13.108;2022-09-20T21:44:56;7.20;99.90
9776;DHT22;4927;52.472;13.108;2022-09-20T21:50:07;7.10;99.90
9776;DHT22;4927;52.472;13.108;2022-09-20T21:55:14;7.00;99.90
9776;DHT22;4927;52.472;13.108;2022-09-20T22:00:24;7.00;99.90
9776;DHT22;4927;52.472;13.108;2022-09-20T22:05:35;7.00;99.90
9776;DHT22;4927;52.472;13.108;2022-09-20T22:10:41;7.00;99.90
9776;DHT22;4927;52.472;13.108;2022-09-20T22:15:48;6.90;99.90
9776;DHT22;4927;52.472;13.108;2022-09-20T22:21:00;6.90;99.90
9776;DHT22;4927;52.472;13.108;2022-09-20T22:26:12;6.80;99.90
9776;DHT22;4927;52.472;13.108;2022-09-20T22:31:19;6.80;99.90
9776;DHT22;4927;52.472;13.108;2022-09-20T22:36:26;6.70;99.90
9776;DHT22;4927;52.472;13.108;2022-09-20T22:41:32;6.70;99.90
9776;DHT22;4927;52.472;13.108;2022-09-20T22:46:43;6.70;99.90
9776;DHT22;4927;52.472;13.108;2022-09-20T22:51:53;6.60;99.90
9776;DHT22;4927;52.472;13.108;2022-09-20T22:56:59;6.70;99.90
9776;DHT22;4927;52.472;13.108;2022-09-20T23:02:05;6.60;99.90
9776;DHT22;4927;52.472;13.108;2022-09-20T23:07:12;6.60;99.90
9776;DHT22;4927;52.472;13.108;2022-09-20T23:12:22;6.50;99.90
9776;DHT22;4927;52.472;13.108;2022-09-20T23:17:32;6.50;99.90
9776;DHT22;4927;52.472;13.108;2022-09-20T23:22:39;6.40;99.90
9776;DHT22;4927;52.472;13.108;2022-09-20T23:27:49;6.40;99.90
9776;DHT22;4927;52.472;13.108;2022-09-20T23:32:59;6.40;99.90
9776;DHT22;4927;52.472;13.108;2022-09-20T23:38:05;6.40;99.90
9776;DHT22;4927;52.472;13.108;2022-09-20T23:43:11;6.30;99.90
9776;DHT22;4927;52.472;13.108;2022-09-20T23:48:18;6.30;99.90
9776;DHT22;4927;52.472;13.108;2022-09-20T23:53:28;6.30;99.90
9776;DHT22;4927;52.472;13.108;2022-09-20T23:58:35;6.20;99.90
